sensor_id;sensor_type;location;lat;lon;timestamp;P1;durP1;ratioP1;P2;durP2;ratioP2
5209;SDS011;2624;48.048;11.706;2023-03-31T00:04:08;4.20;;;3.17;;
5209;SDS011;2624;48.048;11.706;2023-03-31T00:09:12;11.67;;;3.37;;
5209;SDS011;2624;48.048;11.706;2023-03-31T00:14:19;3.67;;;3.30;;
5209;SDS011;2624;48.048;11.706;2023-03-31T00:19:22;5.30;;;3.50;;
5209;SDS011;2624;48.048;11.706;2023-03-31T00:24:24;9.53;;;3.57;;
5209;SDS011;2624;48.048;11.706;2023-03-31T00:29:25;4.17;;;3.27;;
5209;SDS011;2624;48.048;11.706;2023-03-31T00:34:29;3.33;;;3.10;;
5209;SDS011;2624;48.048;11.706;2023-03-31T00:39:31;7.10;;;2.70;;
5209;SDS011;2624;48.048;11.706;2023-03-31T00:44:34;5.33;;;3.17;;
5209;SDS011;2624;48.048;11.706;2023-03-31T00:49:42;10.83;;;2.70;;
5209;SDS011;2624;48.048;11.706;2023-03-31T00:54:47;4.93;;;3.30;;
5209;SDS011;2624;48.048;11.706;2023-03-31T00:59:54;7.73;;;3.40;;
5209;SDS011;2624;48.048;11.706;2023-03-31T01:05:00;5.20;;;3.60;;
5209;SDS011;2624;48.048;11.706;2023-03-31T01:10:02;22.03;;;4.13;;
5209;SDS011;2624;48.048;11.706;2023-03-31T01:15:06;5.30;;;3.67;;
5209;SDS011;2624;48.048;11.706;2023-03-31T01:20:12;3.57;;;3.27;;
5209;SDS011;2624;48.048;11.706;2023-03-31T01:25:38;6.90;;;4.00;;
5209;SDS011;2624;48.048;11.706;2023-03-31T01:31:18;3.87;;;3.50;;
5209;SDS011;2624;48.048;11.706;2023-03-31T01:42:32;8.90;;;3.60;;
5209;SDS011;2624;48.048;11.706;2023-03-31T01:47:39;6.03;;;3.67;;
5209;SDS011;2624;48.048;11.706;2023-03-31T01:52:46;6.30;;;3.83;;
5209;SDS011;2624;48.048;11.706;2023-03-31T01:57:51;3.80;;;3.50;;
5209;SDS011;2624;48.048;11.706;2023-03-31T02:02:56;6.90;;;3.53;;
5209;SDS011;2624;48.048;11.706;2023-03-31T02:08:03;7.80;;;3.63;;
5209;SDS011;2624;48.048;11.706;2023-03-31T02:13:11;4.63;;;3.10;;
5209;SDS011;2624;48.048;11.706;2023-03-31T02:18:15;3.77;;;3.40;;
5209;SDS011;2624;48.048;11.706;2023-03-31T02:23:21;6.10;;;4.27;;
5209;SDS011;2624;48.048;11.706;2023-03-31T02:28:27;10.03;;;3.40;;
5209;SDS011;2624;48.048;11.706;2023-03-31T02:33:29;3.80;;;3.40;;
5209;SDS011;2624;48.048;11.706;2023-03-31T02:38:32;7.50;;;3.57;;
5209;SDS011;2624;48.048;11.706;2023-03-31T02:43:39;4.20;;;3.30;;
5209;SDS011;2624;48.048;11.706;2023-03-31T02:48:42;3.80;;;3.43;;
5209;SDS011;2624;48.048;11.706;2023-03-31T02:53:56;9.70;;;3.60;;
5209;SDS011;2624;48.048;11.706;2023-03-31T02:59:17;6.57;;;3.77;;
5209;SDS011;2624;48.048;11.706;2023-03-31T03:04:36;3.33;;;2.97;;
5209;SDS011;2624;48.048;11.706;2023-03-31T03:09:56;4.00;;;3.47;;
5209;SDS011;2624;48.048;11.706;2023-03-31T03:15:04;6.47;;;4.10;;
5209;SDS011;2624;48.048;11.706;2023-03-31T03:20:09;9.40;;;3.23;;
5209;SDS011;2624;48.048;11.706;2023-03-31T03:25:13;5.70;;;3.83;;
5209;SDS011;2624;48.048;11.706;2023-03-31T03:30:18;5.17;;;3.77;;
5209;SDS011;2624;48.048;11.706;2023-03-31T03:35:20;4.13;;;3.00;;
5209;SDS011;2624;48.048;11.706;2023-03-31T03:40:22;5.67;;;3.37;;
5209;SDS011;2624;48.048;11.706;2023-03-31T03:45:25;3.80;;;2.50;;
5209;SDS011;2624;48.048;11.706;2023-03-31T03:50:27;11.13;;;3.77;;
5209;SDS011;2624;48.048;11.706;2023-03-31T03:55:28;7.00;;;3.63;;
5209;SDS011;2624;48.048;11.706;2023-03-31T04:00:32;4.73;;;2.70;;
5209;SDS011;2624;48.048;11.706;2023-03-31T04:05:34;7.33;;;3.50;;
5209;SDS011;2624;48.048;11.706;2023-03-31T04:10:35;7.17;;;2.83;;
5209;SDS011;2624;48.048;11.706;2023-03-31T04:15:39;3.27;;;3.00;;
5209;SDS011;2624;48.048;11.706;2023-03-31T04:20:40;2.70;;;2.50;;
5209;SDS011;2624;48.048;11.706;2023-03-31T04:25:44;4.63;;;3.00;;
5209;SDS011;2624;48.048;11.706;2023-03-31T04:30:47;4.83;;;2.90;;
5209;SDS011;2624;48.048;11.706;2023-03-31T04:35:48;10.30;;;4.13;;
5209;SDS011;2624;48.048;11.706;2023-03-31T04:40:51;5.50;;;3.57;;
5209;SDS011;2624;48.048;11.706;2023-03-31T04:45:55;3.50;;;3.17;;
5209;SDS011;2624;48.048;11.706;2023-03-31T04:50:57;3.37;;;3.00;;
5209;SDS011;2624;48.048;11.706;2023-03-31T04:55:58;3.03;;;2.63;;
5209;SDS011;2624;48.048;11.706;2023-03-31T05:01:02;3.87;;;2.90;;
5209;SDS011;2624;48.048;11.706;2023-03-31T05:06:05;3.30;;;3.07;;
5209;SDS011;2624;48.048;11.706;2023-03-31T05:11:07;3.27;;;2.90;;
5209;SDS011;2624;48.048;11.706;2023-03-31T05:16:12;3.27;;;2.93;;
5209;SDS011;2624;48.048;11.706;2023-03-31T05:21:16;3.93;;;3.47;;
5209;SDS011;2624;48.048;11.706;2023-03-31T05:26:18;6.70;;;4.23;;
5209;SDS011;2624;48.048;11.706;2023-03-31T05:31:23;5.33;;;4.13;;
5209;SDS011;2624;48.048;11.706;2023-03-31T05:36:25;6.90;;;3.90;;
5209;SDS011;2624;48.048;11.706;2023-03-31T05:41:26;5.43;;;3.70;;
5209;SDS011;2624;48.048;11.706;2023-03-31T05:46:30;5.00;;;3.77;;
5209;SDS011;2624;48.048;11.706;2023-03-31T05:51:31;3.30;;;3.00;;
5209;SDS011;2624;48.048;11.706;2023-03-31T05:56:33;3.43;;;2.90;;
5209;SDS011;2624;48.048;11.706;2023-03-31T06:01:36;2.57;;;2.37;;
5209;SDS011;2624;48.048;11.706;2023-03-31T06:06:38;5.97;;;3.20;;
5209;SDS011;2624;48.048;11.706;2023-03-31T06:11:41;9.63;;;4.00;;
5209;SDS011;2624;48.048;11.706;2023-03-31T06:16:45;5.30;;;4.27;;
5209;SDS011;2624;48.048;11.706;2023-03-31T06:21:48;7.23;;;3.90;;
5209;SDS011;2624;48.048;11.706;2023-03-31T06:26:50;4.30;;;3.90;;
5209;SDS011;2624;48.048;11.706;2023-03-31T06:31:53;11.30;;;4.00;;
5209;SDS011;2624;48.048;11.706;2023-03-31T06:36:55;10.63;;;5.60;;
5209;SDS011;2624;48.048;11.706;2023-03-31T06:41:56;5.93;;;4.07;;
5209;SDS011;2624;48.048;11.706;2023-03-31T06:46:59;7.57;;;4.50;;
5209;SDS011;2624;48.048;11.706;2023-03-31T06:52:01;5.70;;;4.63;;
5209;SDS011;2624;48.048;11.706;2023-03-31T06:57:03;11.77;;;7.20;;
5209;SDS011;2624;48.048;11.706;2023-03-31T07:02:08;13.70;;;6.83;;
5209;SDS011;2624;48.048;11.706;2023-03-31T07:07:09;5.63;;;4.73;;
5209;SDS011;2624;48.048;11.706;2023-03-31T07:12:11;6.07;;;3.80;;
5209;SDS011;2624;48.048;11.706;2023-03-31T07:17:14;4.00;;;3.70;;
5209;SDS011;2624;48.048;11.706;2023-03-31T07:22:16;9.50;;;5.07;;
5209;SDS011;2624;48.048;11.706;2023-03-31T07:27:18;2.40;;;2.20;;
5209;SDS011;2624;48.048;11.706;2023-03-31T07:32:21;4.03;;;3.67;;
5209;SDS011;2624;48.048;11.706;2023-03-31T07:37:23;7.63;;;3.17;;
5209;SDS011;2624;48.048;11.706;2023-03-31T07:42:25;3.77;;;3.47;;
5209;SDS011;2624;48.048;11.706;2023-03-31T07:47:28;6.67;;;3.87;;
5209;SDS011;2624;48.048;11.706;2023-03-31T07:52:30;9.27;;;3.47;;
5209;SDS011;2624;48.048;11.706;2023-03-31T07:57:31;7.70;;;3.80;;
5209;SDS011;2624;48.048;11.706;2023-03-31T08:02:35;11.53;;;4.70;;
5209;SDS011;2624;48.048;11.706;2023-03-31T08:07:37;5.27;;;3.97;;
5209;SDS011;2624;48.048;11.706;2023-03-31T08:12:40;4.37;;;3.57;;
5209;SDS011;2624;48.048;11.706;2023-03-31T08:17:44;5.73;;;4.20;;
5209;SDS011;2624;48.048;11.706;2023-03-31T08:22:45;4.50;;;3.53;;
5209;SDS011;2624;48.048;11.706;2023-03-31T08:27:47;7.80;;;4.40;;
5209;SDS011;2624;48.048;11.706;2023-03-31T08:32:51;6.53;;;4.20;;
5209;SDS011;2624;48.048;11.706;2023-03-31T08:37:53;4.83;;;3.90;;
5209;SDS011;2624;48.048;11.706;2023-03-31T08:42:55;5.10;;;4.43;;
5209;SDS011;2624;48.048;11.706;2023-03-31T08:48:02;3.90;;;3.60;;
5209;SDS011;2624;48.048;11.706;2023-03-31T08:53:12;6.93;;;4.20;;
5209;SDS011;2624;48.048;11.706;2023-03-31T08:58:26;4.70;;;3.60;;
5209;SDS011;2624;48.048;11.706;2023-03-31T09:03:36;4.40;;;3.20;;
5209;SDS011;2624;48.048;11.706;2023-03-31T09:08:44;7.70;;;4.17;;
5209;SDS011;2624;48.048;11.706;2023-03-31T09:13:55;4.77;;;4.30;;
5209;SDS011;2624;48.048;11.706;2023-03-31T09:19:10;13.80;;;3.07;;
5209;SDS011;2624;48.048;11.706;2023-03-31T09:24:16;5.03;;;3.57;;
5209;SDS011;2624;48.048;11.706;2023-03-31T09:29:23;2.97;;;2.67;;
5209;SDS011;2624;48.048;11.706;2023-03-31T09:34:32;7.70;;;3.70;;
5209;SDS011;2624;48.048;11.706;2023-03-31T09:39:35;7.63;;;3.80;;
5209;SDS011;2624;48.048;11.706;2023-03-31T09:44:37;3.93;;;3.00;;
5209;SDS011;2624;48.048;11.706;2023-03-31T09:49:43;4.20;;;2.40;;
5209;SDS011;2624;48.048;11.706;2023-03-31T09:54:47;2.27;;;2.10;;
5209;SDS011;2624;48.048;11.706;2023-03-31T09:59:51;2.33;;;2.23;;
5209;SDS011;2624;48.048;11.706;2023-03-31T10:04:55;8.63;;;2.47;;
5209;SDS011;2624;48.048;11.706;2023-03-31T10:09:56;5.03;;;2.80;;
5209;SDS011;2624;48.048;11.706;2023-03-31T10:15:02;3.20;;;2.63;;
5209;SDS011;2624;48.048;11.706;2023-03-31T10:20:19;3.90;;;3.13;;
5209;SDS011;2624;48.048;11.706;2023-03-31T10:25:32;11.77;;;2.90;;
5209;SDS011;2624;48.048;11.706;2023-03-31T10:30:34;5.93;;;2.33;;
5209;SDS011;2624;48.048;11.706;2023-03-31T10:35:40;12.33;;;4.33;;
5209;SDS011;2624;48.048;11.706;2023-03-31T10:40:42;14.90;;;3.17;;
5209;SDS011;2624;48.048;11.706;2023-03-31T10:45:52;5.30;;;3.60;;
5209;SDS011;2624;48.048;11.706;2023-03-31T10:50:59;4.03;;;3.60;;
5209;SDS011;2624;48.048;11.706;2023-03-31T10:56:08;2.27;;;2.17;;
5209;SDS011;2624;48.048;11.706;2023-03-31T11:01:30;5.23;;;3.10;;
5209;SDS011;2624;48.048;11.706;2023-03-31T11:06:47;5.63;;;3.27;;
5209;SDS011;2624;48.048;11.706;2023-03-31T11:11:57;2.70;;;2.50;;
5209;SDS011;2624;48.048;11.706;2023-03-31T11:17:07;5.07;;;3.50;;
5209;SDS011;2624;48.048;11.706;2023-03-31T11:22:22;4.70;;;4.13;;
5209;SDS011;2624;48.048;11.706;2023-03-31T11:27:33;7.73;;;3.97;;
5209;SDS011;2624;48.048;11.706;2023-03-31T11:32:56;2.87;;;2.23;;
5209;SDS011;2624;48.048;11.706;2023-03-31T11:38:22;0.80;;;0.80;;
5209;SDS011;2624;48.048;11.706;2023-03-31T11:43:45;1.17;;;1.00;;
5209;SDS011;2624;48.048;11.706;2023-03-31T11:48:50;0.50;;;0.50;;
5209;SDS011;2624;48.048;11.706;2023-03-31T11:54:00;0.70;;;0.70;;
5209;SDS011;2624;48.048;11.706;2023-03-31T11:59:05;2.10;;;0.80;;
5209;SDS011;2624;48.048;11.706;2023-03-31T12:04:15;0.90;;;0.90;;
5209;SDS011;2624;48.048;11.706;2023-03-31T12:09:29;1.10;;;1.00;;
5209;SDS011;2624;48.048;11.706;2023-03-31T12:14:36;1.20;;;1.10;;
5209;SDS011;2624;48.048;11.706;2023-03-31T12:19:43;2.17;;;1.97;;
5209;SDS011;2624;48.048;11.706;2023-03-31T12:24:49;0.90;;;0.90;;
5209;SDS011;2624;48.048;11.706;2023-03-31T12:29:53;1.40;;;1.30;;
5209;SDS011;2624;48.048;11.706;2023-03-31T12:34:58;1.73;;;1.63;;
5209;SDS011;2624;48.048;11.706;2023-03-31T12:40:06;1.40;;;1.30;;
5209;SDS011;2624;48.048;11.706;2023-03-31T12:45:17;32.30;;;7.03;;
5209;SDS011;2624;48.048;11.706;2023-03-31T12:50:39;2.57;;;1.87;;
5209;SDS011;2624;48.048;11.706;2023-03-31T12:55:50;3.97;;;2.07;;
5209;SDS011;2624;48.048;11.706;2023-03-31T13:01:03;3.87;;;2.30;;
5209;SDS011;2624;48.048;11.706;2023-03-31T13:06:08;9.90;;;3.50;;
5209;SDS011;2624;48.048;11.706;2023-03-31T13:11:12;2.33;;;2.13;;
5209;SDS011;2624;48.048;11.706;2023-03-31T13:16:17;1.70;;;1.60;;
5209;SDS011;2624;48.048;11.706;2023-03-31T13:21:20;2.67;;;1.33;;
5209;SDS011;2624;48.048;11.706;2023-03-31T13:26:35;0.70;;;0.70;;
5209;SDS011;2624;48.048;11.706;2023-03-31T13:37:21;2.33;;;0.80;;
5209;SDS011;2624;48.048;11.706;2023-03-31T13:42:44;3.70;;;0.60;;
5209;SDS011;2624;48.048;11.706;2023-03-31T13:48:06;2.20;;;0.80;;
5209;SDS011;2624;48.048;11.706;2023-03-31T13:53:34;0.93;;;0.80;;
5209;SDS011;2624;48.048;11.706;2023-03-31T14:04:29;1.03;;;0.83;;
5209;SDS011;2624;48.048;11.706;2023-03-31T14:09:51;1.97;;;1.10;;
5209;SDS011;2624;48.048;11.706;2023-03-31T14:14:55;3.30;;;0.87;;
5209;SDS011;2624;48.048;11.706;2023-03-31T14:19:59;3.47;;;1.30;;
5209;SDS011;2624;48.048;11.706;2023-03-31T14:25:17;1.43;;;0.80;;
5209;SDS011;2624;48.048;11.706;2023-03-31T14:30:32;0.83;;;0.83;;
5209;SDS011;2624;48.048;11.706;2023-03-31T14:35:43;1.23;;;1.20;;
5209;SDS011;2624;48.048;11.706;2023-03-31T14:40:52;1.00;;;0.90;;
5209;SDS011;2624;48.048;11.706;2023-03-31T14:45:58;1.27;;;1.00;;
5209;SDS011;2624;48.048;11.706;2023-03-31T14:51:01;0.70;;;0.70;;
5209;SDS011;2624;48.048;11.706;2023-03-31T14:56:04;0.40;;;0.40;;
5209;SDS011;2624;48.048;11.706;2023-03-31T15:01:13;0.63;;;0.47;;
5209;SDS011;2624;48.048;11.706;2023-03-31T15:06:17;0.43;;;0.40;;
5209;SDS011;2624;48.048;11.706;2023-03-31T15:11:19;0.30;;;0.30;;
5209;SDS011;2624;48.048;11.706;2023-03-31T15:16:30;0.67;;;0.67;;
5209;SDS011;2624;48.048;11.706;2023-03-31T15:21:36;0.50;;;0.50;;
5209;SDS011;2624;48.048;11.706;2023-03-31T15:26:39;0.63;;;0.57;;
5209;SDS011;2624;48.048;11.706;2023-03-31T15:31:47;1.00;;;0.50;;
5209;SDS011;2624;48.048;11.706;2023-03-31T15:36:49;0.60;;;0.60;;
5209;SDS011;2624;48.048;11.706;2023-03-31T15:41:51;0.40;;;0.40;;
5209;SDS011;2624;48.048;11.706;2023-03-31T15:47:01;0.80;;;0.80;;
5209;SDS011;2624;48.048;11.706;2023-03-31T15:52:17;0.40;;;0.40;;
5209;SDS011;2624;48.048;11.706;2023-03-31T15:57:30;2.57;;;0.50;;
5209;SDS011;2624;48.048;11.706;2023-03-31T16:02:39;2.40;;;0.80;;
5209;SDS011;2624;48.048;11.706;2023-03-31T16:07:43;6.07;;;1.03;;
5209;SDS011;2624;48.048;11.706;2023-03-31T16:12:48;0.90;;;0.60;;
5209;SDS011;2624;48.048;11.706;2023-03-31T16:17:54;0.50;;;0.50;;
5209;SDS011;2624;48.048;11.706;2023-03-31T16:22:59;1.90;;;0.73;;
5209;SDS011;2624;48.048;11.706;2023-03-31T16:28:02;1.60;;;0.87;;
5209;SDS011;2624;48.048;11.706;2023-03-31T16:33:06;3.43;;;1.10;;
5209;SDS011;2624;48.048;11.706;2023-03-31T16:38:10;0.73;;;0.70;;
5209;SDS011;2624;48.048;11.706;2023-03-31T16:43:15;1.03;;;0.77;;
5209;SDS011;2624;48.048;11.706;2023-03-31T16:48:20;0.60;;;0.60;;
5209;SDS011;2624;48.048;11.706;2023-03-31T16:53:23;0.90;;;0.70;;
5209;SDS011;2624;48.048;11.706;2023-03-31T16:58:26;0.40;;;0.40;;
5209;SDS011;2624;48.048;11.706;2023-03-31T17:03:29;0.90;;;0.90;;
5209;SDS011;2624;48.048;11.706;2023-03-31T17:08:31;0.70;;;0.70;;
5209;SDS011;2624;48.048;11.706;2023-03-31T17:13:33;0.83;;;0.70;;
5209;SDS011;2624;48.048;11.706;2023-03-31T17:18:36;0.60;;;0.60;;
5209;SDS011;2624;48.048;11.706;2023-03-31T17:23:38;0.63;;;0.63;;
5209;SDS011;2624;48.048;11.706;2023-03-31T17:28:41;2.30;;;0.43;;
5209;SDS011;2624;48.048;11.706;2023-03-31T17:33:45;3.00;;;0.30;;
5209;SDS011;2624;48.048;11.706;2023-03-31T17:38:47;2.63;;;0.83;;
5209;SDS011;2624;48.048;11.706;2023-03-31T17:43:49;0.97;;;0.60;;
5209;SDS011;2624;48.048;11.706;2023-03-31T17:48:52;0.60;;;0.60;;
5209;SDS011;2624;48.048;11.706;2023-03-31T17:53:57;0.73;;;0.60;;
5209;SDS011;2624;48.048;11.706;2023-03-31T17:58:58;0.37;;;0.37;;
5209;SDS011;2624;48.048;11.706;2023-03-31T18:04:02;0.50;;;0.50;;
5209;SDS011;2624;48.048;11.706;2023-03-31T18:09:03;0.47;;;0.47;;
5209;SDS011;2624;48.048;11.706;2023-03-31T18:14:05;0.40;;;0.40;;
5209;SDS011;2624;48.048;11.706;2023-03-31T18:19:08;0.70;;;0.57;;
5209;SDS011;2624;48.048;11.706;2023-03-31T18:24:10;2.30;;;0.67;;
5209;SDS011;2624;48.048;11.706;2023-03-31T18:29:12;1.60;;;0.60;;
5209;SDS011;2624;48.048;11.706;2023-03-31T18:34:16;0.40;;;0.37;;
5209;SDS011;2624;48.048;11.706;2023-03-31T18:39:17;0.50;;;0.37;;
5209;SDS011;2624;48.048;11.706;2023-03-31T18:44:20;0.43;;;0.43;;
5209;SDS011;2624;48.048;11.706;2023-03-31T18:49:23;0.40;;;0.40;;
5209;SDS011;2624;48.048;11.706;2023-03-31T18:54:25;5.10;;;0.50;;
5209;SDS011;2624;48.048;11.706;2023-03-31T18:59:26;0.57;;;0.57;;
5209;SDS011;2624;48.048;11.706;2023-03-31T19:04:29;0.73;;;0.73;;
5209;SDS011;2624;48.048;11.706;2023-03-31T19:09:31;1.37;;;0.70;;
5209;SDS011;2624;48.048;11.706;2023-03-31T19:14:33;1.83;;;1.73;;
5209;SDS011;2624;48.048;11.706;2023-03-31T19:19:37;1.33;;;0.50;;
5209;SDS011;2624;48.048;11.706;2023-03-31T19:24:39;0.60;;;0.60;;
5209;SDS011;2624;48.048;11.706;2023-03-31T19:29:41;1.10;;;0.53;;
5209;SDS011;2624;48.048;11.706;2023-03-31T19:34:44;0.77;;;0.67;;
5209;SDS011;2624;48.048;11.706;2023-03-31T19:39:46;7.43;;;1.23;;
5209;SDS011;2624;48.048;11.706;2023-03-31T19:44:48;5.50;;;2.50;;
5209;SDS011;2624;48.048;11.706;2023-03-31T19:49:51;2.20;;;1.30;;
5209;SDS011;2624;48.048;11.706;2023-03-31T19:54:53;3.43;;;0.87;;
5209;SDS011;2624;48.048;11.706;2023-03-31T19:59:54;2.03;;;1.10;;
5209;SDS011;2624;48.048;11.706;2023-03-31T20:04:57;2.23;;;0.90;;
5209;SDS011;2624;48.048;11.706;2023-03-31T20:10:00;3.30;;;0.90;;
5209;SDS011;2624;48.048;11.706;2023-03-31T20:15:01;2.90;;;1.20;;
5209;SDS011;2624;48.048;11.706;2023-03-31T20:20:05;1.53;;;0.67;;
5209;SDS011;2624;48.048;11.706;2023-03-31T20:25:08;1.20;;;0.63;;
5209;SDS011;2624;48.048;11.706;2023-03-31T20:30:10;6.23;;;0.87;;
5209;SDS011;2624;48.048;11.706;2023-03-31T20:35:13;3.33;;;1.00;;
5209;SDS011;2624;48.048;11.706;2023-03-31T20:40:15;0.60;;;0.60;;
5209;SDS011;2624;48.048;11.706;2023-03-31T20:45:17;2.67;;;2.10;;
5209;SDS011;2624;48.048;11.706;2023-03-31T20:50:20;0.73;;;0.53;;
5209;SDS011;2624;48.048;11.706;2023-03-31T20:55:23;1.03;;;0.80;;
5209;SDS011;2624;48.048;11.706;2023-03-31T21:00:25;3.90;;;0.73;;
5209;SDS011;2624;48.048;11.706;2023-03-31T21:05:28;1.33;;;0.70;;
5209;SDS011;2624;48.048;11.706;2023-03-31T21:10:30;0.80;;;0.80;;
5209;SDS011;2624;48.048;11.706;2023-03-31T21:15:32;0.57;;;0.57;;
5209;SDS011;2624;48.048;11.706;2023-03-31T21:20:35;3.57;;;0.70;;
5209;SDS011;2624;48.048;11.706;2023-03-31T21:25:37;1.50;;;0.50;;
5209;SDS011;2624;48.048;11.706;2023-03-31T21:30:38;0.93;;;0.43;;
5209;SDS011;2624;48.048;11.706;2023-03-31T21:35:41;1.80;;;0.60;;
5209;SDS011;2624;48.048;11.706;2023-03-31T21:40:43;5.53;;;1.00;;
5209;SDS011;2624;48.048;11.706;2023-03-31T21:45:45;3.60;;;0.67;;
5209;SDS011;2624;48.048;11.706;2023-03-31T21:50:48;0.73;;;0.50;;
5209;SDS011;2624;48.048;11.706;2023-03-31T21:55:51;2.67;;;0.37;;
5209;SDS011;2624;48.048;11.706;2023-03-31T22:00:54;0.97;;;0.80;;
5209;SDS011;2624;48.048;11.706;2023-03-31T22:05:58;1.17;;;0.50;;
5209;SDS011;2624;48.048;11.706;2023-03-31T22:11:01;1.80;;;0.50;;
5209;SDS011;2624;48.048;11.706;2023-03-31T22:16:04;1.23;;;0.77;;
5209;SDS011;2624;48.048;11.706;2023-03-31T22:21:15;0.50;;;0.50;;
5209;SDS011;2624;48.048;11.706;2023-03-31T22:26:18;3.93;;;0.60;;
5209;SDS011;2624;48.048;11.706;2023-03-31T22:31:21;0.83;;;0.50;;
5209;SDS011;2624;48.048;11.706;2023-03-31T22:36:24;0.30;;;0.30;;
5209;SDS011;2624;48.048;11.706;2023-03-31T22:41:26;0.40;;;0.40;;
5209;SDS011;2624;48.048;11.706;2023-03-31T22:46:28;0.77;;;0.50;;
5209;SDS011;2624;48.048;11.706;2023-03-31T22:51:31;1.70;;;0.40;;
5209;SDS011;2624;48.048;11.706;2023-03-31T22:56:33;0.97;;;0.80;;
5209;SDS011;2624;48.048;11.706;2023-03-31T23:01:35;2.67;;;0.50;;
5209;SDS011;2624;48.048;11.706;2023-03-31T23:06:38;0.40;;;0.40;;
5209;SDS011;2624;48.048;11.706;2023-03-31T23:11:40;0.73;;;0.40;;
5209;SDS011;2624;48.048;11.706;2023-03-31T23:16:43;0.30;;;0.30;;
5209;SDS011;2624;48.048;11.706;2023-03-31T23:21:47;1.70;;;0.67;;
5209;SDS011;2624;48.048;11.706;2023-03-31T23:26:48;1.57;;;0.50;;
5209;SDS011;2624;48.048;11.706;2023-03-31T23:31:50;2.13;;;0.70;;
5209;SDS011;2624;48.048;11.706;2023-03-31T23:36:53;1.37;;;0.40;;
5209;SDS011;2624;48.048;11.706;2023-03-31T23:41:55;1.60;;;0.67;;
5209;SDS011;2624;48.048;11.706;2023-03-31T23:46:57;0.47;;;0.47;;
5209;SDS011;2624;48.048;11.706;2023-03-31T23:52:01;0.67;;;0.40;;
5209;SDS011;2624;48.048;11.706;2023-03-31T23:57:03;0.40;;;0.40;;
